Time;durP1;ratioP1;P1;durP2;ratioP2;P2;SDS_P1;SDS_P2;PMS_P1;PMS_P2;Temp;Humidity;BMP_temperature;BMP_pressure;BME280_temperature;BME280_humidity;BME280_pressure;Samples;Min_cycle;Max_cycle;Signal;HPM_P1;HPM_P2
2022/10/28 00:02:24;;;;;;;12.02;5.68;;;11.40;99.90;;;;;;5010527;28;20038;-47
2022/10/28 00:04:49;;;;;;;8.30;5.18;;;11.40;99.90;;;;;;4989228;28;20038;-50
2022/10/28 00:07:15;;;;;;;5.65;4.63;;;11.40;99.90;;;;;;5010426;28;20030;-50
2022/10/28 00:09:40;;;;;;;9.23;5.22;;;11.40;99.90;;;;;;4993803;28;20038;-51
2022/10/28 00:12:06;;;;;;;11.82;5.38;;;11.40;99.90;;;;;;5010399;28;20109;-52
2022/10/28 00:14:31;;;;;;;7.40;5.28;;;11.40;99.90;;;;;;4992759;28;20485;-53
2022/10/28 00:16:57;;;;;;;6.75;4.72;;;11.40;99.90;;;;;;5010339;28;20030;-54
2022/10/28 00:19:22;;;;;;;7.85;5.15;;;11.30;99.90;;;;;;4991390;28;20038;-52
2022/10/28 00:21:48;;;;;;;10.35;4.93;;;11.30;99.90;;;;;;5010090;28;20490;-52
2022/10/28 00:24:13;;;;;;;9.75;5.03;;;11.30;99.90;;;;;;4990344;28;20037;-54
2022/10/28 00:26:44;;;;;;;7.90;4.43;;;11.30;99.90;;;;;;5010088;28;20517;-51
2022/10/28 00:29:13;;;;;;;5.18;4.35;;;11.30;99.90;;;;;;4970077;28;20077;-54
2022/10/28 00:31:39;;;;;;;9.10;4.70;;;11.30;99.90;;;;;;5009938;28;20105;-54
2022/10/28 00:34:08;;;;;;;6.63;4.38;;;11.30;99.90;;;;;;4990786;28;20109;-52
2022/10/28 00:36:36;;;;;;;10.50;6.15;;;11.30;99.90;;;;;;4990284;28;20034;-52
2022/10/28 00:39:08;;;;;;;7.93;5.75;;;11.40;99.90;;;;;;4998888;28;20054;-51
2022/10/28 00:41:37;;;;;;;8.80;5.60;;;11.50;99.90;;;;;;4990721;28;20041;-53
2022/10/28 00:44:40;;;;;;;7.30;4.57;;;11.60;99.90;;;;;;5008299;28;20030;-53
2022/10/28 00:47:30;;;;;;;6.22;4.80;;;11.60;99.90;;;;;;5009766;28;20036;-51
2022/10/28 00:50:06;;;;;;;9.18;4.45;;;11.60;99.90;;;;;;4981943;28;20033;-52
2022/10/28 00:52:32;;;;;;;7.03;4.45;;;11.60;99.90;;;;;;5009612;28;20499;-51
2022/10/28 00:55:00;;;;;;;5.53;4.35;;;11.60;99.90;;;;;;4995530;28;20044;-54
2022/10/28 00:57:35;;;;;;;7.45;4.93;;;11.60;99.90;;;;;;5009561;28;20034;-53
2022/10/28 01:00:04;;;;;;;9.10;4.72;;;11.60;99.90;;;;;;4983498;28;20041;-49
2022/10/28 01:02:31;;;;;;;6.32;4.47;;;11.50;99.90;;;;;;5008562;28;20034;-50
2022/10/28 01:04:57;;;;;;;8.70;5.25;;;11.50;99.90;;;;;;4991919;28;20038;-51
2022/10/28 01:07:24;;;;;;;7.78;5.00;;;11.50;99.90;;;;;;5009234;28;20026;-50
2022/10/28 01:09:50;;;;;;;8.07;4.78;;;11.50;99.90;;;;;;4994009;28;20118;-49
2022/10/28 01:12:34;;;;;;;6.78;4.75;;;11.40;99.90;;;;;;5009224;28;20502;-49
2022/10/28 01:15:15;;;;;;;7.82;4.75;;;11.30;99.90;;;;;;4982801;28;20498;-50
2022/10/28 01:18:32;;;;;;;8.50;4.78;;;11.30;99.90;;;;;;5009437;28;20022;-52
2022/10/28 01:21:26;;;;;;;7.13;4.80;;;11.30;99.90;;;;;;4974103;28;20038;-53
2022/10/28 01:24:17;;;;;;;8.80;4.32;;;11.30;99.90;;;;;;4998955;28;20044;-51
2022/10/28 01:27:07;;;;;;;12.60;4.50;;;11.40;99.90;;;;;;4970016;28;20034;-51
2022/10/28 01:29:46;;;;;;;13.38;4.78;;;11.30;99.90;;;;;;5005508;28;20514;-53
2022/10/28 01:32:39;;;;;;;6.90;4.70;;;11.40;99.90;;;;;;5008964;28;20030;-48
2022/10/28 01:35:15;;;;;;;10.77;4.70;;;11.40;99.90;;;;;;4984032;28;20502;-53
2022/10/28 01:38:00;;;;;;;6.07;3.88;;;11.40;99.90;;;;;;4988974;28;20114;-51
2022/10/28 01:40:34;;;;;;;6.80;4.75;;;11.40;99.90;;;;;;4989774;28;20038;-54
2022/10/28 01:43:14;;;;;;;6.85;4.43;;;11.50;99.90;;;;;;4969862;28;20058;-51
2022/10/28 01:45:54;;;;;;;8.82;5.68;;;11.50;99.90;;;;;;4980830;28;20031;-51
2022/10/28 01:48:24;;;;;;;7.75;5.28;;;11.50;99.90;;;;;;4969956;28;20023;-53
2022/10/28 01:50:58;;;;;;;6.20;5.13;;;11.60;99.90;;;;;;4992959;28;20018;-50
2022/10/28 01:53:29;;;;;;;8.52;4.75;;;11.50;99.90;;;;;;4969915;28;20043;-51
2022/10/28 01:55:59;;;;;;;7.07;4.93;;;11.50;99.90;;;;;;4982758;28;20042;-54
2022/10/28 01:58:29;;;;;;;6.45;4.57;;;11.60;99.90;;;;;;5008710;28;20030;-51
2022/10/28 02:00:55;;;;;;;6.93;4.50;;;11.60;99.90;;;;;;4981207;28;20394;-49
2022/10/28 02:03:22;;;;;;;7.72;5.25;;;11.60;99.90;;;;;;5007938;28;20033;-54
2022/10/28 02:05:51;;;;;;;10.48;5.40;;;11.60;99.90;;;;;;4984543;28;20062;-49
2022/10/28 02:08:42;;;;;;;6.13;4.53;;;11.60;99.90;;;;;;5008305;28;20192;-53
2022/10/28 02:11:13;;;;;;;6.65;5.18;;;11.60;99.90;;;;;;4984276;28;20042;-50
2022/10/28 02:13:42;;;;;;;7.15;5.10;;;11.70;99.90;;;;;;5008946;28;20033;-50
2022/10/28 02:16:07;;;;;;;6.75;4.30;;;11.60;99.90;;;;;;4991291;28;20026;-53
2022/10/28 02:18:58;;;;;;;9.73;5.00;;;11.60;99.90;;;;;;5011750;28;20397;-55
2022/10/28 02:21:35;;;;;;;7.90;4.40;;;11.60;99.90;;;;;;4990147;28;20441;-51
2022/10/28 02:24:07;;;;;;;6.43;5.00;;;11.60;99.90;;;;;;4973371;28;20039;-52
2022/10/28 02:26:38;;;;;;;10.85;5.53;;;11.60;99.90;;;;;;4973338;28;20026;-53
2022/10/28 02:29:14;;;;;;;10.50;5.55;;;11.60;99.90;;;;;;4973192;28;20030;-53
2022/10/28 02:31:53;;;;;;;6.18;4.30;;;11.60;99.90;;;;;;4973294;28;20554;-49
2022/10/28 02:34:43;;;;;;;7.93;5.32;;;11.50;99.90;;;;;;4974933;28;20521;-53
2022/10/28 02:37:17;;;;;;;7.45;4.35;;;11.50;99.90;;;;;;5011670;28;20042;-51
2022/10/28 02:39:47;;;;;;;7.43;4.70;;;11.40;99.90;;;;;;4981132;28;20054;-54
2022/10/28 02:42:20;;;;;;;5.57;4.18;;;11.40;99.90;;;;;;5012126;28;20444;-49
2022/10/28 02:44:50;;;;;;;7.13;3.83;;;11.40;99.90;;;;;;4981771;28;20061;-50
2022/10/28 02:47:21;;;;;;;7.20;5.07;;;11.40;99.90;;;;;;5012023;28;20048;-49
2022/10/28 02:49:52;;;;;;;7.70;4.35;;;11.40;99.90;;;;;;4981973;28;20039;-51
2022/10/28 02:52:20;;;;;;;10.20;5.00;;;11.40;99.90;;;;;;5011843;28;20034;-52
2022/10/28 02:54:54;;;;;;;5.05;3.90;;;11.40;99.90;;;;;;4995903;28;20509;-54
2022/10/28 02:57:23;;;;;;;6.00;4.03;;;11.40;99.90;;;;;;5011815;28;20058;-54
2022/10/28 02:59:57;;;;;;;6.53;3.88;;;11.30;99.90;;;;;;4996075;28;20052;-55
2022/10/28 03:02:23;;;;;;;5.50;3.80;;;11.30;99.90;;;;;;5011579;28;20026;-55
2022/10/28 03:04:49;;;;;;;5.32;4.05;;;11.30;99.90;;;;;;4988915;28;20034;-53
2022/10/28 03:07:15;;;;;;;10.60;5.22;;;11.30;99.90;;;;;;5011554;28;20020;-51
2022/10/28 03:09:40;;;;;;;8.52;5.50;;;11.20;99.90;;;;;;4995175;28;20034;-53
2022/10/28 03:12:06;;;;;;;8.35;5.57;;;11.20;99.90;;;;;;5011550;28;20144;-54
2022/10/28 03:14:31;;;;;;;8.82;5.20;;;11.20;99.90;;;;;;4994042;28;20056;-53
2022/10/28 03:16:57;;;;;;;7.18;4.43;;;11.20;99.90;;;;;;5011399;28;20101;-53
2022/10/28 03:19:22;;;;;;;7.00;4.75;;;11.20;99.90;;;;;;4992941;28;20026;-55
2022/10/28 03:21:48;;;;;;;8.70;5.35;;;11.10;99.90;;;;;;5011259;28;20545;-51
2022/10/28 03:24:13;;;;;;;9.25;5.35;;;11.10;99.90;;;;;;4991393;28;20030;-53
2022/10/28 03:26:39;;;;;;;8.60;4.65;;;11.10;99.90;;;;;;5010403;28;20158;-54
2022/10/28 03:29:04;;;;;;;8.25;4.65;;;11.10;99.90;;;;;;4991723;28;20030;-54
2022/10/28 03:31:30;;;;;;;6.45;4.85;;;11.00;99.90;;;;;;5011281;28;20647;-54
2022/10/28 03:33:55;;;;;;;8.68;4.25;;;11.00;99.90;;;;;;4992030;28;20446;-52
2022/10/28 03:36:21;;;;;;;8.35;4.88;;;11.00;99.90;;;;;;4989979;28;20088;-49
2022/10/28 03:38:46;;;;;;;6.40;4.65;;;10.90;99.90;;;;;;5001701;28;20056;-52
2022/10/28 03:41:12;;;;;;;10.98;5.63;;;10.90;99.90;;;;;;4991365;28;20360;-55
2022/10/28 03:43:37;;;;;;;11.02;4.60;;;10.90;99.90;;;;;;5010137;28;20045;-53
2022/10/28 03:46:03;;;;;;;10.65;5.22;;;10.80;99.90;;;;;;4990091;28;20101;-49
2022/10/28 03:48:28;;;;;;;11.75;5.97;;;10.70;99.90;;;;;;5010152;28;20030;-52
2022/10/28 03:50:54;;;;;;;6.95;4.03;;;10.70;99.90;;;;;;4989850;28;20088;-53
2022/10/28 03:53:21;;;;;;;6.45;4.30;;;10.70;99.90;;;;;;5010082;28;20600;-50
2022/10/28 03:56:00;;;;;;;8.93;4.88;;;10.60;99.90;;;;;;4989565;28;20026;-55
2022/10/28 03:58:26;;;;;;;6.78;4.50;;;10.50;99.90;;;;;;4971748;28;20092;-55
2022/10/28 04:00:52;;;;;;;9.80;5.45;;;10.50;99.90;;;;;;4993224;28;20069;-50
2022/10/28 04:03:19;;;;;;;7.68;4.65;;;10.40;99.90;;;;;;5009935;28;20406;-55
2022/10/28 04:05:48;;;;;;;7.15;4.90;;;10.40;99.90;;;;;;4996904;28;20057;-55
2022/10/28 04:08:14;;;;;;;10.60;5.40;;;10.40;99.90;;;;;;4989749;28;20026;-55
2022/10/28 04:10:40;;;;;;;6.75;4.30;;;10.30;99.90;;;;;;4995187;28;20119;-54
2022/10/28 04:13:06;;;;;;;10.85;4.63;;;10.30;99.90;;;;;;5008379;28;20553;-55
2022/10/28 04:15:32;;;;;;;9.82;5.00;;;10.20;99.90;;;;;;4989575;28;20425;-50
2022/10/28 04:17:58;;;;;;;9.50;4.85;;;10.20;99.90;;;;;;5008382;28;20033;-52
2022/10/28 04:20:24;;;;;;;14.05;5.95;;;10.10;99.90;;;;;;4999794;28;20038;-52
2022/10/28 04:22:50;;;;;;;7.70;4.95;;;10.10;99.90;;;;;;4989697;28;20041;-53
2022/10/28 04:25:16;;;;;;;9.63;5.07;;;10.00;99.90;;;;;;5007730;28;20038;-53
2022/10/28 04:27:44;;;;;;;13.98;5.18;;;10.00;99.90;;;;;;4990989;28;20239;-55
2022/10/28 04:30:11;;;;;;;11.02;6.03;;;9.90;99.90;;;;;;5007813;28;20050;-55
2022/10/28 04:32:37;;;;;;;7.32;5.22;;;9.90;99.90;;;;;;4990911;28;20512;-53
2022/10/28 04:35:03;;;;;;;10.90;5.90;;;9.90;99.90;;;;;;5007378;28;20397;-51
2022/10/28 04:37:29;;;;;;;7.05;4.75;;;9.90;99.90;;;;;;4990925;28;20535;-55
2022/10/28 04:39:54;;;;;;;7.38;4.85;;;9.80;99.90;;;;;;5006980;28;20130;-52
2022/10/28 04:42:22;;;;;;;9.60;5.00;;;9.80;99.90;;;;;;5009865;28;20029;-53
2022/10/28 04:44:47;;;;;;;10.40;6.43;;;9.80;99.90;;;;;;4994347;28;20175;-52
2022/10/28 04:47:13;;;;;;;7.70;5.18;;;9.70;99.90;;;;;;5009886;28;20350;-55
2022/10/28 04:49:38;;;;;;;13.48;6.90;;;9.70;99.90;;;;;;4993210;28;20041;-52
2022/10/28 04:52:04;;;;;;;15.73;6.57;;;9.70;99.90;;;;;;5009752;28;20108;-55
2022/10/28 04:54:29;;;;;;;11.57;6.07;;;9.70;99.90;;;;;;4992218;28;20032;-55
2022/10/28 04:56:55;;;;;;;10.68;6.75;;;9.60;99.90;;;;;;5009621;28;20490;-55
2022/10/28 04:59:20;;;;;;;11.80;7.80;;;9.60;99.90;;;;;;4990732;28;20088;-54
2022/10/28 05:01:46;;;;;;;13.05;8.32;;;9.60;99.90;;;;;;5009552;28;20037;-52
2022/10/28 05:04:11;;;;;;;13.10;8.43;;;9.50;99.90;;;;;;4989520;28;20066;-53
2022/10/28 05:06:37;;;;;;;11.73;6.85;;;9.50;99.90;;;;;;5003861;28;20697;-53
2022/10/28 05:09:02;;;;;;;9.55;6.90;;;9.40;99.90;;;;;;4990281;28;20076;-55
2022/10/28 05:11:28;;;;;;;14.57;7.93;;;9.40;99.90;;;;;;5005975;28;20457;-51
2022/10/28 05:13:53;;;;;;;10.93;6.18;;;9.40;99.90;;;;;;4990466;28;20049;-55
2022/10/28 05:16:19;;;;;;;10.57;6.03;;;9.40;99.90;;;;;;4988832;28;20038;-55
2022/10/28 05:18:44;;;;;;;11.15;6.53;;;9.40;99.90;;;;;;5008644;28;20421;-54
2022/10/28 05:21:10;;;;;;;9.52;6.70;;;9.40;99.90;;;;;;4988420;28;20036;-54
2022/10/28 05:23:35;;;;;;;10.38;6.55;;;9.30;99.90;;;;;;5008595;28;20026;-53
2022/10/28 05:26:01;;;;;;;12.57;6.43;;;9.30;99.90;;;;;;4988461;28;20042;-50
2022/10/28 05:28:27;;;;;;;9.65;6.70;;;9.30;99.90;;;;;;5008416;28;20427;-51
2022/10/28 05:30:52;;;;;;;13.63;6.90;;;9.30;99.90;;;;;;4988059;28;20042;-52
2022/10/28 05:33:18;;;;;;;12.73;7.53;;;9.30;99.90;;;;;;5008454;28;20072;-51
2022/10/28 05:35:43;;;;;;;13.73;7.05;;;9.20;99.90;;;;;;4988015;28;20450;-50
2022/10/28 05:38:09;;;;;;;9.25;6.45;;;9.30;99.90;;;;;;5004973;28;20038;-54
2022/10/28 05:40:35;;;;;;;7.82;5.18;;;9.20;99.90;;;;;;4999623;28;20410;-49
2022/10/28 05:43:01;;;;;;;10.18;6.13;;;9.30;99.90;;;;;;4990022;28;21135;-54
2022/10/28 05:45:27;;;;;;;11.45;6.40;;;9.30;99.90;;;;;;4994269;28;20030;-49
2022/10/28 05:47:53;;;;;;;12.80;6.72;;;9.30;99.90;;;;;;5008063;28;20111;-53
2022/10/28 05:50:19;;;;;;;12.05;5.95;;;9.40;99.90;;;;;;4997537;28;20441;-54
2022/10/28 05:52:54;;;;;;;12.60;6.70;;;9.40;99.90;;;;;;4989647;28;20029;-50
2022/10/28 05:55:21;;;;;;;9.40;6.13;;;9.40;99.90;;;;;;4988129;28;20034;-52
2022/10/28 05:57:48;;;;;;;10.38;7.28;;;9.50;99.90;;;;;;4988120;28;20042;-53
2022/10/28 06:00:16;;;;;;;11.65;6.53;;;9.50;99.90;;;;;;5006582;28;20486;-49
2022/10/28 06:02:42;;;;;;;10.88;6.78;;;9.50;99.90;;;;;;4989342;28;20042;-50
2022/10/28 06:05:08;;;;;;;10.10;6.63;;;9.60;99.90;;;;;;4999720;28;20482;-49
2022/10/28 06:07:34;;;;;;;9.75;6.43;;;9.70;99.90;;;;;;4989318;28;20030;-49
2022/10/28 06:10:01;;;;;;;11.70;6.40;;;9.70;99.90;;;;;;5006149;28;20045;-51
2022/10/28 06:12:27;;;;;;;9.80;5.43;;;9.70;99.90;;;;;;5008610;28;20032;-52
2022/10/28 06:14:52;;;;;;;10.30;6.03;;;9.80;99.90;;;;;;4993968;28;20120;-55
2022/10/28 06:17:18;;;;;;;9.73;6.38;;;9.80;99.90;;;;;;5008692;28;20315;-55
2022/10/28 06:19:43;;;;;;;11.18;5.85;;;9.80;99.90;;;;;;4992650;28;20482;-49
2022/10/28 06:22:09;;;;;;;6.97;4.63;;;9.90;99.90;;;;;;5008597;28;20026;-53
2022/10/28 06:24:34;;;;;;;8.52;5.32;;;10.00;99.90;;;;;;4991599;28;20112;-50
2022/10/28 06:27:00;;;;;;;10.05;6.22;;;10.00;99.90;;;;;;5008587;28;20034;-52
2022/10/28 06:29:25;;;;;;;12.77;6.65;;;10.10;99.90;;;;;;4990250;28;20568;-53
2022/10/28 06:31:51;;;;;;;10.50;6.25;;;10.10;99.90;;;;;;5008420;28;20490;-51
2022/10/28 06:34:16;;;;;;;9.70;5.20;;;10.20;99.90;;;;;;4988944;28;20069;-50
2022/10/28 06:36:42;;;;;;;9.77;5.38;;;10.30;99.90;;;;;;5008457;28;20064;-51
2022/10/28 06:39:07;;;;;;;10.02;5.45;;;10.30;99.90;;;;;;4987403;28;20581;-52
2022/10/28 06:41:33;;;;;;;7.53;4.82;;;10.40;99.90;;;;;;5008364;28;20104;-54
2022/10/28 06:43:59;;;;;;;8.10;5.93;;;10.50;99.90;;;;;;4989112;28;20479;-53
2022/10/28 06:46:25;;;;;;;10.30;5.90;;;10.60;99.90;;;;;;4987221;28;20034;-51
2022/10/28 06:48:53;;;;;;;11.13;6.35;;;10.70;99.90;;;;;;5007552;28;20088;-51
2022/10/28 06:51:18;;;;;;;7.63;5.38;;;10.80;99.90;;;;;;4987021;28;20041;-52
2022/10/28 06:53:50;;;;;;;7.95;5.10;;;10.90;99.90;;;;;;5023353;28;20038;-51
2022/10/28 06:56:16;;;;;;;11.30;5.97;;;11.00;99.90;;;;;;4984978;28;20035;-50
2022/10/28 06:58:42;;;;;;;9.80;5.53;;;11.00;99.90;;;;;;5007456;28;20116;-52
2022/10/28 07:01:07;;;;;;;8.85;5.82;;;11.10;99.90;;;;;;4988811;28;20034;-51
2022/10/28 07:03:33;;;;;;;10.73;6.10;;;11.20;99.90;;;;;;5010958;28;20038;-50
2022/10/28 07:05:59;;;;;;;7.53;6.03;;;11.30;99.90;;;;;;4984933;28;20034;-51
2022/10/28 07:08:26;;;;;;;9.93;5.50;;;11.40;99.90;;;;;;5010999;28;20037;-50
2022/10/28 07:10:56;;;;;;;7.53;5.32;;;11.60;99.90;;;;;;4992992;28;20074;-51
2022/10/28 07:13:22;;;;;;;9.40;5.47;;;11.70;99.90;;;;;;5011022;28;20037;-53
2022/10/28 07:15:55;;;;;;;9.68;5.20;;;11.80;99.90;;;;;;4990463;28;20585;-50
2022/10/28 07:18:22;;;;;;;11.00;5.40;;;11.90;99.90;;;;;;5011359;28;20034;-50
2022/10/28 07:20:48;;;;;;;9.07;5.68;;;12.00;99.90;;;;;;4990205;28;20031;-54
2022/10/28 07:23:13;;;;;;;10.35;5.57;;;12.20;99.90;;;;;;5010623;28;20029;-52
2022/10/28 07:25:39;;;;;;;11.02;5.55;;;12.40;99.90;;;;;;4990432;28;20033;-54
2022/10/28 07:28:05;;;;;;;11.10;5.22;;;12.50;99.90;;;;;;5010489;28;20505;-52
2022/10/28 07:30:31;;;;;;;11.23;5.22;;;12.60;99.90;;;;;;4990285;28;20042;-50
2022/10/28 07:33:00;;;;;;;11.85;6.22;;;12.80;99.90;;;;;;5010540;28;20037;-55
2022/10/28 07:35:29;;;;;;;10.32;5.95;;;12.90;99.90;;;;;;5000460;28;20030;-53
2022/10/28 07:37:54;;;;;;;8.35;5.40;;;13.10;99.90;;;;;;4992798;28;20033;-52
2022/10/28 07:40:21;;;;;;;8.75;5.70;;;13.30;99.90;;;;;;5009197;28;20045;-55
2022/10/28 07:42:46;;;;;;;9.00;4.82;;;13.50;99.90;;;;;;4991705;28;20034;-54
2022/10/28 07:45:12;;;;;;;6.32;4.45;;;13.70;99.90;;;;;;5008299;28;20037;-53
2022/10/28 07:47:38;;;;;;;8.85;4.55;;;14.00;99.90;;;;;;4991555;28;20030;-53
2022/10/28 07:50:04;;;;;;;8.38;5.15;;;14.20;99.90;;;;;;5008245;28;20457;-51
2022/10/28 07:52:30;;;;;;;7.15;4.45;;;14.50;99.90;;;;;;4991563;28;20057;-55
2022/10/28 07:54:56;;;;;;;7.80;4.00;;;14.70;99.90;;;;;;5006861;28;20057;-55
2022/10/28 07:57:21;;;;;;;6.50;4.13;;;14.90;99.90;;;;;;5010591;28;20092;-53
2022/10/28 07:59:47;;;;;;;5.70;3.47;;;15.10;99.90;;;;;;4995289;28;20040;-54
2022/10/28 08:02:19;;;;;;;8.55;3.63;;;15.20;99.90;;;;;;5010572;28;20512;-52
2022/10/28 08:04:44;;;;;;;5.53;3.50;;;15.40;99.90;;;;;;4991259;28;20156;-53
2022/10/28 08:07:11;;;;;;;6.03;2.78;;;15.70;99.90;;;;;;5010569;28;20101;-54
2022/10/28 08:09:36;;;;;;;5.43;2.85;;;15.90;99.90;;;;;;4993478;28;20046;-56
2022/10/28 08:12:02;;;;;;;4.70;3.20;;;16.30;99.90;;;;;;5010022;28;20088;-53
2022/10/28 08:14:27;;;;;;;4.45;3.08;;;16.60;99.90;;;;;;4992410;28;20022;-47
2022/10/28 08:16:53;;;;;;;6.45;3.17;;;17.00;99.90;;;;;;5010174;28;20037;-47
2022/10/28 08:19:18;;;;;;;7.80;3.15;;;17.40;99.90;;;;;;4991052;28;20034;-47
2022/10/28 08:21:43;;;;;;;6.00;2.50;;;17.80;99.90;;;;;;5010141;28;20030;-47
2022/10/28 08:24:09;;;;;;;5.63;2.83;;;18.10;99.90;;;;;;4989675;28;20030;-47
2022/10/28 08:26:34;;;;;;;3.92;2.45;;;18.30;99.90;;;;;;5010101;28;20097;-47
2022/10/28 08:29:00;;;;;;;3.72;2.35;;;18.40;99.90;;;;;;4990861;28;20368;-47
2022/10/28 08:31:26;;;;;;;4.55;2.45;;;18.50;99.90;;;;;;5007573;28;20022;-47
2022/10/28 08:33:51;;;;;;;6.47;2.40;;;18.50;99.90;;;;;;4991068;28;20034;-47
2022/10/28 08:36:16;;;;;;;4.97;2.67;;;18.50;99.90;;;;;;5007667;28;20034;-47
2022/10/28 08:38:43;;;;;;;11.07;2.70;;;18.60;99.90;;;;;;4998140;28;20038;-47
2022/10/28 08:41:20;;;;;;;5.78;2.63;;;18.70;99.90;;;;;;4988836;28;20037;-47
2022/10/28 08:44:18;;;;;;;4.45;2.75;;;18.70;99.90;;;;;;4970700;28;20376;-47
2022/10/28 08:46:58;;;;;;;5.50;2.47;;;18.90;99.90;;;;;;4969438;28;20035;-48
2022/10/28 08:49:24;;;;;;;5.57;3.10;;;19.10;99.90;;;;;;4973638;28;20034;-47
2022/10/28 08:52:13;;;;;;;4.47;2.65;;;19.30;99.90;;;;;;5009599;28;20071;-48
2022/10/28 08:54:46;;;;;;;4.05;2.58;;;19.70;99.90;;;;;;4976485;28;20022;-47
2022/10/28 08:57:22;;;;;;;5.68;2.53;;;19.90;99.90;;;;;;5009612;28;20049;-47
2022/10/28 08:59:52;;;;;;;4.65;2.65;;;20.20;99.90;;;;;;4980105;28;20056;-47
2022/10/28 09:02:22;;;;;;;5.13;2.40;;;20.40;99.90;;;;;;5009504;28;20509;-49
2022/10/28 09:04:56;;;;;;;4.75;2.35;;;20.50;99.90;;;;;;4987810;28;20198;-48
2022/10/28 09:07:23;;;;;;;4.53;2.45;;;20.50;99.90;;;;;;5009409;28;20032;-47
2022/10/28 09:09:51;;;;;;;2.85;2.15;;;20.60;99.90;;;;;;4994083;28;20037;-47
2022/10/28 09:12:31;;;;;;;4.13;2.72;;;20.70;99.90;;;;;;5009469;28;20103;-47
2022/10/28 09:15:46;;;;;;;4.40;2.40;;;20.60;99.90;;;;;;4982654;28;20076;-48
2022/10/28 09:18:19;;;;;;;2.58;1.65;;;20.60;99.90;;;;;;4968194;28;20047;-47
2022/10/28 09:20:53;;;;;;;6.47;2.90;;;20.60;99.90;;;;;;4991662;28;20093;-47
2022/10/28 09:23:28;;;;;;;4.80;2.72;;;20.50;99.90;;;;;;4969527;28;20035;-47
2022/10/28 09:26:27;;;;;;;5.47;3.47;;;20.50;99.90;;;;;;4982906;28;20030;-48
2022/10/28 09:29:25;;;;;;;5.57;2.58;;;20.40;99.90;;;;;;4970235;28;20034;-48
2022/10/28 09:31:57;;;;;;;5.47;2.55;;;20.40;99.90;;;;;;4970010;28;20446;-48
2022/10/28 09:34:41;;;;;;;4.90;2.80;;;20.30;99.90;;;;;;5005845;28;20037;-48
2022/10/28 09:37:16;;;;;;;4.20;2.78;;;20.30;99.90;;;;;;5009038;28;20061;-47
2022/10/28 09:39:56;;;;;;;5.93;2.50;;;20.40;99.90;;;;;;4977736;28;20531;-47
2022/10/28 09:42:29;;;;;;;3.78;2.40;;;20.40;99.90;;;;;;5007637;28;20069;-47
2022/10/28 09:45:05;;;;;;;3.28;2.20;;;20.40;99.90;;;;;;4993920;28;20036;-47
2022/10/28 09:47:59;;;;;;;5.22;2.50;;;20.50;99.90;;;;;;5009268;28;20184;-48
2022/10/28 09:50:29;;;;;;;6.03;2.50;;;20.40;95.00;;;;;;4989064;28;20045;-50
2022/10/28 09:53:16;;;;;;;3.72;2.58;;;20.40;99.90;;;;;;4987758;28;20030;-48
2022/10/28 09:55:42;;;;;;;5.57;2.90;;;20.40;99.90;;;;;;4993156;28;20606;-47
2022/10/28 09:58:10;;;;;;;7.78;3.42;;;20.30;99.90;;;;;;5008026;28;20037;-47
2022/10/28 10:00:36;;;;;;;6.55;3.08;;;20.20;92.90;;;;;;4986170;28;20376;-48
2022/10/28 10:03:01;;;;;;;6.55;2.85;;;20.20;98.00;;;;;;5007946;28;20033;-47
2022/10/28 10:05:29;;;;;;;7.53;3.08;;;20.20;98.40;;;;;;4990298;28;20038;-47
2022/10/28 10:08:02;;;;;;;10.75;3.45;;;20.20;98.80;;;;;;4989060;28;20031;-47
2022/10/28 10:10:38;;;;;;;6.43;2.95;;;20.20;93.20;;;;;;5006423;28;20084;-48
2022/10/28 10:13:06;;;;;;;7.93;2.88;;;20.10;94.00;;;;;;4969669;28;20026;-49
2022/10/28 10:15:38;;;;;;;10.20;3.08;;;20.00;97.40;;;;;;4994309;28;20383;-47
2022/10/28 10:18:09;;;;;;;7.00;2.72;;;20.10;96.70;;;;;;5008432;28;20034;-47
2022/10/28 10:20:57;;;;;;;6.63;3.13;;;20.10;97.50;;;;;;4979720;28;20034;-49
2022/10/28 10:23:34;;;;;;;7.07;2.90;;;20.00;94.00;;;;;;4969663;28;20479;-52
2022/10/28 10:26:04;;;;;;;5.07;2.50;;;19.90;97.40;;;;;;4983021;28;20030;-46
2022/10/28 10:28:32;;;;;;;8.30;2.70;;;19.90;99.00;;;;;;5007973;28;20076;-48
2022/10/28 10:31:01;;;;;;;5.70;2.45;;;19.90;99.00;;;;;;4987304;28;20080;-49
2022/10/28 10:33:39;;;;;;;6.32;2.83;;;20.00;98.10;;;;;;5008100;28;20065;-47
2022/10/28 10:36:16;;;;;;;4.43;2.30;;;19.90;95.90;;;;;;4991085;28;20478;-46
2022/10/28 10:38:50;;;;;;;7.32;2.10;;;19.90;97.50;;;;;;4987899;28;20046;-48
2022/10/28 10:41:39;;;;;;;9.27;3.03;;;20.00;96.90;;;;;;4990775;28;20447;-46
2022/10/28 10:44:20;;;;;;;6.45;3.22;;;19.90;93.00;;;;;;5011872;28;20044;-46
2022/10/28 10:46:46;;;;;;;6.10;2.70;;;20.00;94.30;;;;;;5012228;28;20054;-48
2022/10/28 10:49:13;;;;;;;4.25;2.42;;;20.00;96.30;;;;;;4991527;28;20113;-47
2022/10/28 10:51:49;;;;;;;9.30;2.83;;;19.90;96.60;;;;;;5011887;28;20076;-48
2022/10/28 10:54:15;;;;;;;5.00;3.17;;;20.00;96.20;;;;;;4973430;28;20034;-47
2022/10/28 10:56:41;;;;;;;7.40;2.92;;;20.00;97.10;;;;;;5010616;28;20040;-48
2022/10/28 10:59:21;;;;;;;5.90;2.95;;;20.00;95.60;;;;;;4990833;28;20525;-47
2022/10/28 11:01:47;;;;;;;4.68;2.50;;;20.00;97.20;;;;;;5011606;28;20033;-47
2022/10/28 11:04:18;;;;;;;6.43;3.42;;;20.10;97.40;;;;;;4991694;28;20026;-47
2022/10/28 11:06:49;;;;;;;11.93;3.50;;;20.10;96.00;;;;;;5008279;28;20022;-46
2022/10/28 11:09:37;;;;;;;6.00;2.90;;;20.20;95.00;;;;;;4973137;28;20041;-47
2022/10/28 11:12:14;;;;;;;4.75;2.20;;;20.20;95.80;;;;;;5011456;28;20113;-47
2022/10/28 11:14:56;;;;;;;5.07;2.30;;;20.20;96.30;;;;;;4995192;28;20038;-49
2022/10/28 11:17:25;;;;;;;5.78;2.45;;;20.30;97.50;;;;;;5011403;28;20030;-47
2022/10/28 11:19:54;;;;;;;3.42;2.22;;;20.30;96.20;;;;;;4996051;28;20114;-48
2022/10/28 11:22:43;;;;;;;4.70;2.63;;;20.40;96.50;;;;;;5011310;28;20440;-47
2022/10/28 11:25:35;;;;;;;6.43;3.28;;;20.50;96.50;;;;;;4987402;28;20116;-47
2022/10/28 11:28:34;;;;;;;4.95;2.65;;;20.70;91.90;;;;;;4972239;28;20487;-47
2022/10/28 11:31:28;;;;;;;5.00;2.70;;;20.90;90.30;;;;;;4985649;28;20054;-46
2022/10/28 11:34:31;;;;;;;6.93;2.97;;;21.00;92.40;;;;;;4972140;28;20039;-48
2022/10/28 11:37:28;;;;;;;8.25;2.65;;;21.10;90.80;;;;;;5009708;28;20441;-48
2022/10/28 11:40:01;;;;;;;;;;;21.20;87.90;;;;;;4983273;28;20073;-46
2022/10/28 11:42:54;;;;;;;9.77;3.03;;;21.30;86.60;;;;;;5011082;28;20288;-48
2022/10/28 11:45:58;;;;;;;10.20;3.05;;;21.40;90.00;;;;;;4988704;28;20478;-46
2022/10/28 11:48:54;;;;;;;9.35;2.50;;;21.50;89.50;;;;;;4990920;28;20049;-47
2022/10/28 11:51:53;;;;;;;7.15;2.47;;;21.50;90.10;;;;;;4987946;28;20566;-47
2022/10/28 11:54:27;;;;;;;6.28;2.53;;;21.60;83.80;;;;;;4973507;28;20078;-47
2022/10/28 11:57:00;;;;;;;4.55;2.42;;;21.60;90.50;;;;;;5010659;28;20022;-47
2022/10/28 11:59:38;;;;;;;7.30;2.08;;;21.60;90.10;;;;;;4975338;28;20379;-46
2022/10/28 12:02:40;;;;;;;7.78;3.00;;;21.50;90.60;;;;;;5010459;28;20508;-47
2022/10/28 12:05:17;;;;;;;6.20;2.33;;;21.50;88.70;;;;;;4980092;28;20445;-47
2022/10/28 12:07:58;;;;;;;3.08;1.83;;;21.50;89.80;;;;;;4971569;28;20030;-47
2022/10/28 12:10:34;;;;;;;4.07;2.35;;;21.50;90.60;;;;;;4990582;28;20033;-49
2022/10/28 12:13:16;;;;;;;4.72;2.63;;;21.40;91.50;;;;;;4971570;28;20492;-49
2022/10/28 12:16:09;;;;;;;3.13;2.10;;;21.40;91.70;;;;;;4970065;28;20109;-51
2022/10/28 12:18:47;;;;;;;9.18;2.97;;;21.40;91.60;;;;;;4971271;28;20034;-49
2022/10/28 12:21:17;;;;;;;10.43;2.70;;;21.40;89.60;;;;;;4991277;28;20371;-50
2022/10/28 12:23:45;;;;;;;8.85;2.67;;;21.40;91.20;;;;;;5009977;28;20026;-52
2022/10/28 12:26:15;;;;;;;7.47;2.53;;;21.40;91.10;;;;;;4989089;28;20066;-48
2022/10/28 12:28:48;;;;;;;8.57;2.85;;;21.40;89.30;;;;;;5009992;28;20245;-48
2022/10/28 12:31:20;;;;;;;4.40;2.80;;;21.40;90.50;;;;;;4986408;28;20088;-50
2022/10/28 12:33:50;;;;;;;6.88;2.67;;;21.40;89.10;;;;;;5009547;28;20551;-49
2022/10/28 12:36:26;;;;;;;4.63;2.65;;;21.40;90.50;;;;;;4988378;28;20254;-51
2022/10/28 12:39:11;;;;;;;4.93;2.55;;;21.40;91.00;;;;;;4988201;28;20054;-52
2022/10/28 12:41:58;;;;;;;3.38;2.03;;;21.40;90.50;;;;;;4970910;28;20065;-55
2022/10/28 12:44:25;;;;;;;4.63;2.38;;;21.40;90.10;;;;;;5007945;28;20056;-50
2022/10/28 12:47:02;;;;;;;3.70;2.40;;;21.50;91.50;;;;;;5009691;28;20037;-50
2022/10/28 12:50:04;;;;;;;5.15;2.30;;;21.50;91.30;;;;;;4974593;28;20041;-53
2022/10/28 12:52:39;;;;;;;6.40;2.58;;;21.50;91.20;;;;;;5009669;28;20026;-49
2022/10/28 12:55:27;;;;;;;9.80;3.00;;;21.50;91.10;;;;;;4984611;28;20077;-49
2022/10/28 12:58:14;;;;;;;8.73;2.92;;;21.50;90.10;;;;;;4970056;28;20033;-53
2022/10/28 13:00:44;;;;;;;6.22;2.28;;;21.50;91.70;;;;;;4993954;28;20501;-51
2022/10/28 13:03:14;;;;;;;3.72;2.17;;;21.50;91.70;;;;;;4989967;28;20026;-52
2022/10/28 13:06:14;;;;;;;5.20;2.08;;;21.50;91.90;;;;;;4999028;28;20493;-54
2022/10/28 13:09:00;;;;;;;5.88;2.30;;;21.50;91.00;;;;;;4953960;28;20039;-50
2022/10/28 13:12:22;;;;;;;4.53;2.35;;;21.60;90.50;;;;;;4988716;28;20042;-55